sensor_id;sensor_type;location;lat;lon;timestamp;temperature;humidity
18191;DHT22;47004;51.366;12.348;2022-09-13T00:01:45;14.80;99.90
18191;DHT22;47004;51.366;12.348;2022-09-13T00:03:48;14.80;99.90
18191;DHT22;47004;51.366;12.348;2022-09-13T00:05:50;14.80;99.90
18191;DHT22;47004;51.366;12.348;2022-09-13T00:07:53;14.80;99.90
18191;DHT22;47004;51.366;12.348;2022-09-13T00:09:55;14.70;99.90
18191;DHT22;47004;51.366;12.348;2022-09-13T00:11:57;14.80;99.90
18191;DHT22;47004;51.366;12.348;2022-09-13T00:13:58;14.70;99.90
18191;DHT22;47004;51.366;12.348;2022-09-13T00:16:01;14.70;99.90
18191;DHT22;47004;51.366;12.348;2022-09-13T00:18:04;14.70;99.90
18191;DHT22;47004;51.366;12.348;2022-09-13T00:20:09;14.60;99.90
18191;DHT22;47004;51.366;12.348;2022-09-13T00:22:11;14.60;99.90
18191;DHT22;47004;51.366;12.348;2022-09-13T00:24:13;14.90;99.90
18191;DHT22;47004;51.366;12.348;2022-09-13T00:26:17;14.60;99.90
18191;DHT22;47004;51.366;12.348;2022-09-13T00:28:19;14.60;99.90
18191;DHT22;47004;51.366;12.348;2022-09-13T00:30:21;14.60;99.90
18191;DHT22;47004;51.366;12.348;2022-09-13T00:32:22;14.60;99.90
18191;DHT22;47004;51.366;12.348;2022-09-13T00:34:24;14.50;99.90
18191;DHT22;47004;51.366;12.348;2022-09-13T00:36:27;14.50;99.90
18191;DHT22;47004;51.366;12.348;2022-09-13T00:38:29;14.60;99.90
18191;DHT22;47004;51.366;12.348;2022-09-13T00:40:36;14.40;99.90
18191;DHT22;47004;51.366;12.348;2022-09-13T00:42:38;14.40;99.90
18191;DHT22;47004;51.366;12.348;2022-09-13T00:44:53;14.40;99.90
18191;DHT22;47004;51.366;12.348;2022-09-13T00:46:55;14.40;99.90
18191;DHT22;47004;51.366;12.348;2022-09-13T00:49:02;14.40;99.90
18191;DHT22;47004;51.366;12.348;2022-09-13T00:51:06;14.40;99.90
18191;DHT22;47004;51.366;12.348;2022-09-13T00:53:12;14.30;99.90
18191;DHT22;47004;51.366;12.348;2022-09-13T00:55:18;14.30;99.90
18191;DHT22;47004;51.366;12.348;2022-09-13T00:57:21;14.30;99.90
18191;DHT22;47004;51.366;12.348;2022-09-13T00:59:26;14.30;99.90
18191;DHT22;47004;51.366;12.348;2022-09-13T01:01:34;14.30;99.90
18191;DHT22;47004;51.366;12.348;2022-09-13T01:03:39;14.10;99.90
18191;DHT22;47004;51.366;12.348;2022-09-13T01:05:45;14.20;99.90
18191;DHT22;47004;51.366;12.348;2022-09-13T01:07:48;14.20;99.90
18191;DHT22;47004;51.366;12.348;2022-09-13T01:09:52;14.30;99.90
18191;DHT22;47004;51.366;12.348;2022-09-13T01:11:58;14.10;99.90
18191;DHT22;47004;51.366;12.348;2022-09-13T01:14:06;14.10;99.90
18191;DHT22;47004;51.366;12.348;2022-09-13T01:16:08;14.00;99.90
18191;DHT22;47004;51.366;12.348;2022-09-13T01:18:10;14.10;99.90
18191;DHT22;47004;51.366;12.348;2022-09-13T01:20:13;14.10;99.90
18191;DHT22;47004;51.366;12.348;2022-09-13T01:22:38;14.20;99.90
18191;DHT22;47004;51.366;12.348;2022-09-13T01:27:42;14.00;99.90
18191;DHT22;47004;51.366;12.348;2022-09-13T01:30:08;14.00;99.90
18191;DHT22;47004;51.366;12.348;2022-09-13T01:32:17;14.00;99.90
18191;DHT22;47004;51.366;12.348;2022-09-13T01:34:29;14.00;99.90
18191;DHT22;47004;51.366;12.348;2022-09-13T01:37:07;13.90;99.90
18191;DHT22;47004;51.366;12.348;2022-09-13T01:39:15;13.90;99.90
18191;DHT22;47004;51.366;12.348;2022-09-13T01:41:39;13.80;99.90
18191;DHT22;47004;51.366;12.348;2022-09-13T01:43:53;13.90;99.90
18191;DHT22;47004;51.366;12.348;2022-09-13T01:46:03;13.80;99.90
18191;DHT22;47004;51.366;12.348;2022-09-13T01:48:11;13.80;99.90
18191;DHT22;47004;51.366;12.348;2022-09-13T01:50:20;13.80;99.90
18191;DHT22;47004;51.366;12.348;2022-09-13T01:52:30;13.80;99.90
18191;DHT22;47004;51.366;12.348;2022-09-13T01:54:45;13.80;99.90
18191;DHT22;47004;51.366;12.348;2022-09-13T01:56:53;13.80;99.90
18191;DHT22;47004;51.366;12.348;2022-09-13T01:59:00;13.80;99.90
18191;DHT22;47004;51.366;12.348;2022-09-13T02:01:09;13.70;99.90
18191;DHT22;47004;51.366;12.348;2022-09-13T02:03:17;13.70;99.90
18191;DHT22;47004;51.366;12.348;2022-09-13T02:05:29;13.70;99.90
18191;DHT22;47004;51.366;12.348;2022-09-13T02:07:35;13.60;99.90
18191;DHT22;47004;51.366;12.348;2022-09-13T02:09:41;13.70;99.90
18191;DHT22;47004;51.366;12.348;2022-09-13T02:11:47;13.70;99.90
18191;DHT22;47004;51.366;12.348;2022-09-13T02:13:54;13.70;99.90
18191;DHT22;47004;51.366;12.348;2022-09-13T02:16:01;13.70;99.90
18191;DHT22;47004;51.366;12.348;2022-09-13T02:18:08;13.60;99.90
18191;DHT22;47004;51.366;12.348;2022-09-13T02:20:14;13.60;99.90
18191;DHT22;47004;51.366;12.348;2022-09-13T02:22:21;13.60;99.90
18191;DHT22;47004;51.366;12.348;2022-09-13T02:24:28;13.60;99.90
18191;DHT22;47004;51.366;12.348;2022-09-13T02:26:30;13.60;99.90
18191;DHT22;47004;51.366;12.348;2022-09-13T02:28:36;13.60;99.90
18191;DHT22;47004;51.366;12.348;2022-09-13T02:30:43;13.60;99.90
18191;DHT22;47004;51.366;12.348;2022-09-13T02:32:52;13.60;99.90
18191;DHT22;47004;51.366;12.348;2022-09-13T02:35:00;13.50;99.90
18191;DHT22;47004;51.366;12.348;2022-09-13T02:37:04;13.50;99.90
18191;DHT22;47004;51.366;12.348;2022-09-13T02:39:12;13.50;99.90
18191;DHT22;47004;51.366;12.348;2022-09-13T02:41:20;13.50;99.90
18191;DHT22;47004;51.366;12.348;2022-09-13T02:43:30;13.50;99.90
18191;DHT22;47004;51.366;12.348;2022-09-13T02:45:40;13.50;99.90
18191;DHT22;47004;51.366;12.348;2022-09-13T02:47:48;13.50;99.90
18191;DHT22;47004;51.366;12.348;2022-09-13T02:49:58;13.50;99.90
18191;DHT22;47004;51.366;12.348;2022-09-13T02:52:10;13.40;99.90
18191;DHT22;47004;51.366;12.348;2022-09-13T02:54:21;13.40;99.90
18191;DHT22;47004;51.366;12.348;2022-09-13T02:56:31;13.40;99.90
18191;DHT22;47004;51.366;12.348;2022-09-13T02:58:43;13.40;99.90
18191;DHT22;47004;51.366;12.348;2022-09-13T03:00:46;13.40;99.90
18191;DHT22;47004;51.366;12.348;2022-09-13T03:02:49;13.40;99.90
18191;DHT22;47004;51.366;12.348;2022-09-13T03:04:52;13.40;99.90
18191;DHT22;47004;51.366;12.348;2022-09-13T03:06:55;13.30;99.90
18191;DHT22;47004;51.366;12.348;2022-09-13T03:08:59;13.30;99.90
18191;DHT22;47004;51.366;12.348;2022-09-13T03:11:10;13.30;99.90
18191;DHT22;47004;51.366;12.348;2022-09-13T03:13:32;13.30;99.90
18191;DHT22;47004;51.366;12.348;2022-09-13T03:15:48;13.30;99.90
18191;DHT22;47004;51.366;12.348;2022-09-13T03:17:58;13.30;99.90
18191;DHT22;47004;51.366;12.348;2022-09-13T03:20:10;13.30;99.90
18191;DHT22;47004;51.366;12.348;2022-09-13T03:22:27;13.20;99.90
18191;DHT22;47004;51.366;12.348;2022-09-13T03:24:38;13.20;99.90
18191;DHT22;47004;51.366;12.348;2022-09-13T03:26:48;13.20;99.90
18191;DHT22;47004;51.366;12.348;2022-09-13T03:29:08;13.20;99.90
18191;DHT22;47004;51.366;12.348;2022-09-13T03:31:15;13.20;99.90
18191;DHT22;47004;51.366;12.348;2022-09-13T03:33:24;13.20;99.90
18191;DHT22;47004;51.366;12.348;2022-09-13T03:35:35;13.20;99.90
18191;DHT22;47004;51.366;12.348;2022-09-13T03:37:44;13.20;99.90
18191;DHT22;47004;51.366;12.348;2022-09-13T03:39:56;13.20;99.90
18191;DHT22;47004;51.366;12.348;2022-09-13T03:42:03;13.20;99.90
18191;DHT22;47004;51.366;12.348;2022-09-13T03:44:10;13.10;99.90
18191;DHT22;47004;51.366;12.348;2022-09-13T03:46:16;13.10;99.90
18191;DHT22;47004;51.366;12.348;2022-09-13T03:48:20;13.20;99.90
18191;DHT22;47004;51.366;12.348;2022-09-13T03:50:24;13.20;99.90
18191;DHT22;47004;51.366;12.348;2022-09-13T03:52:26;13.10;99.90
18191;DHT22;47004;51.366;12.348;2022-09-13T03:54:30;13.10;99.90
18191;DHT22;47004;51.366;12.348;2022-09-13T03:56:32;13.10;99.90
18191;DHT22;47004;51.366;12.348;2022-09-13T03:58:34;13.00;99.90
18191;DHT22;47004;51.366;12.348;2022-09-13T04:00:37;13.10;99.90
18191;DHT22;47004;51.366;12.348;2022-09-13T04:02:42;13.10;99.90
18191;DHT22;47004;51.366;12.348;2022-09-13T04:04:44;13.10;99.90
18191;DHT22;47004;51.366;12.348;2022-09-13T04:06:46;13.10;99.90
18191;DHT22;47004;51.366;12.348;2022-09-13T04:08:49;13.10;99.90
18191;DHT22;47004;51.366;12.348;2022-09-13T04:10:51;13.10;99.90
18191;DHT22;47004;51.366;12.348;2022-09-13T04:12:54;13.10;99.90
18191;DHT22;47004;51.366;12.348;2022-09-13T04:14:56;13.10;99.90
18191;DHT22;47004;51.366;12.348;2022-09-13T04:17:02;13.10;99.90
18191;DHT22;47004;51.366;12.348;2022-09-13T04:19:04;13.10;99.90
18191;DHT22;47004;51.366;12.348;2022-09-13T04:21:07;13.40;99.90
18191;DHT22;47004;51.366;12.348;2022-09-13T04:23:09;13.10;99.90
18191;DHT22;47004;51.366;12.348;2022-09-13T04:25:11;13.10;99.90
18191;DHT22;47004;51.366;12.348;2022-09-13T04:27:13;13.10;99.90
18191;DHT22;47004;51.366;12.348;2022-09-13T04:29:15;13.10;99.90
18191;DHT22;47004;51.366;12.348;2022-09-13T04:31:17;13.10;99.90
18191;DHT22;47004;51.366;12.348;2022-09-13T04:33:21;13.10;99.90
18191;DHT22;47004;51.366;12.348;2022-09-13T04:35:23;13.10;99.90
18191;DHT22;47004;51.366;12.348;2022-09-13T04:37:25;13.10;99.90
18191;DHT22;47004;51.366;12.348;2022-09-13T04:39:27;13.30;99.90
18191;DHT22;47004;51.366;12.348;2022-09-13T04:41:29;13.10;99.90
18191;DHT22;47004;51.366;12.348;2022-09-13T04:43:34;13.10;99.90
18191;DHT22;47004;51.366;12.348;2022-09-13T04:45:36;13.20;99.90
18191;DHT22;47004;51.366;12.348;2022-09-13T04:47:38;13.20;99.90
18191;DHT22;47004;51.366;12.348;2022-09-13T04:49:42;13.40;99.90
18191;DHT22;47004;51.366;12.348;2022-09-13T04:51:44;13.20;99.90
18191;DHT22;47004;51.366;12.348;2022-09-13T04:53:50;13.20;99.90
18191;DHT22;47004;51.366;12.348;2022-09-13T04:55:52;13.40;99.90
18191;DHT22;47004;51.366;12.348;2022-09-13T04:57:55;13.20;99.90
18191;DHT22;47004;51.366;12.348;2022-09-13T04:59:57;13.50;99.90
18191;DHT22;47004;51.366;12.348;2022-09-13T05:01:59;13.30;99.90
18191;DHT22;47004;51.366;12.348;2022-09-13T05:04:01;13.20;99.90
18191;DHT22;47004;51.366;12.348;2022-09-13T05:06:07;13.20;99.90
18191;DHT22;47004;51.366;12.348;2022-09-13T05:08:09;13.30;99.90
18191;DHT22;47004;51.366;12.348;2022-09-13T05:10:12;13.30;99.90
18191;DHT22;47004;51.366;12.348;2022-09-13T05:12:14;13.30;99.90
18191;DHT22;47004;51.366;12.348;2022-09-13T05:14:15;13.30;99.90
18191;DHT22;47004;51.366;12.348;2022-09-13T05:16:17;13.60;99.90
18191;DHT22;47004;51.366;12.348;2022-09-13T05:18:19;13.40;99.90
18191;DHT22;47004;51.366;12.348;2022-09-13T05:20:21;13.40;99.90
18191;DHT22;47004;51.366;12.348;2022-09-13T05:22:24;13.60;99.90
18191;DHT22;47004;51.366;12.348;2022-09-13T05:24:26;13.40;99.90
18191;DHT22;47004;51.366;12.348;2022-09-13T05:26:29;13.50;99.90
18191;DHT22;47004;51.366;12.348;2022-09-13T05:28:33;13.40;99.90
18191;DHT22;47004;51.366;12.348;2022-09-13T05:30:35;13.50;99.90
18191;DHT22;47004;51.366;12.348;2022-09-13T05:32:37;13.50;99.90
18191;DHT22;47004;51.366;12.348;2022-09-13T05:34:39;13.50;99.90
18191;DHT22;47004;51.366;12.348;2022-09-13T05:36:41;13.50;99.90
18191;DHT22;47004;51.366;12.348;2022-09-13T05:38:45;13.60;99.90
18191;DHT22;47004;51.366;12.348;2022-09-13T05:40:47;13.60;99.90
18191;DHT22;47004;51.366;12.348;2022-09-13T05:42:51;13.60;99.90
18191;DHT22;47004;51.366;12.348;2022-09-13T05:44:53;13.60;99.90
18191;DHT22;47004;51.366;12.348;2022-09-13T05:46:56;13.70;99.90
18191;DHT22;47004;51.366;12.348;2022-09-13T05:48:58;13.70;99.90
18191;DHT22;47004;51.366;12.348;2022-09-13T05:51:05;13.80;99.90
18191;DHT22;47004;51.366;12.348;2022-09-13T05:53:07;13.80;99.90
18191;DHT22;47004;51.366;12.348;2022-09-13T05:55:10;13.80;99.90
18191;DHT22;47004;51.366;12.348;2022-09-13T05:57:12;13.90;99.90
18191;DHT22;47004;51.366;12.348;2022-09-13T05:59:14;13.90;99.90
18191;DHT22;47004;51.366;12.348;2022-09-13T06:01:17;14.00;99.90
18191;DHT22;47004;51.366;12.348;2022-09-13T06:03:19;14.00;99.90
18191;DHT22;47004;51.366;12.348;2022-09-13T06:05:21;14.10;99.90
18191;DHT22;47004;51.366;12.348;2022-09-13T06:07:23;14.10;99.90
18191;DHT22;47004;51.366;12.348;2022-09-13T06:09:25;14.20;99.90
18191;DHT22;47004;51.366;12.348;2022-09-13T06:11:28;14.20;99.90
18191;DHT22;47004;51.366;12.348;2022-09-13T06:13:31;14.30;99.90
18191;DHT22;47004;51.366;12.348;2022-09-13T06:15:33;14.30;99.90
18191;DHT22;47004;51.366;12.348;2022-09-13T06:17:35;14.40;99.90
18191;DHT22;47004;51.366;12.348;2022-09-13T06:19:37;14.40;99.90
18191;DHT22;47004;51.366;12.348;2022-09-13T06:21:39;14.50;99.90
18191;DHT22;47004;51.366;12.348;2022-09-13T06:23:41;14.50;99.90
18191;DHT22;47004;51.366;12.348;2022-09-13T06:25:43;14.60;99.90
18191;DHT22;47004;51.366;12.348;2022-09-13T06:27:46;14.60;99.90
18191;DHT22;47004;51.366;12.348;2022-09-13T06:29:51;14.60;99.90
18191;DHT22;47004;51.366;12.348;2022-09-13T06:31:54;14.60;99.90
18191;DHT22;47004;51.366;12.348;2022-09-13T06:33:58;14.60;99.90
18191;DHT22;47004;51.366;12.348;2022-09-13T06:36:00;14.70;99.90
18191;DHT22;47004;51.366;12.348;2022-09-13T06:38:02;14.70;99.90
18191;DHT22;47004;51.366;12.348;2022-09-13T06:40:05;14.70;99.90
18191;DHT22;47004;51.366;12.348;2022-09-13T06:42:07;14.60;99.90
18191;DHT22;47004;51.366;12.348;2022-09-13T06:44:10;14.70;99.90
18191;DHT22;47004;51.366;12.348;2022-09-13T06:46:14;14.70;99.90
18191;DHT22;47004;51.366;12.348;2022-09-13T06:48:18;14.70;99.90
18191;DHT22;47004;51.366;12.348;2022-09-13T06:50:20;14.70;99.90
18191;DHT22;47004;51.366;12.348;2022-09-13T06:52:22;14.70;99.90
18191;DHT22;47004;51.366;12.348;2022-09-13T06:54:24;14.70;99.90
18191;DHT22;47004;51.366;12.348;2022-09-13T06:56:28;14.70;99.90
18191;DHT22;47004;51.366;12.348;2022-09-13T06:58:33;14.60;99.90
18191;DHT22;47004;51.366;12.348;2022-09-13T07:00:36;14.70;99.90
18191;DHT22;47004;51.366;12.348;2022-09-13T07:02:38;14.60;99.90
18191;DHT22;47004;51.366;12.348;2022-09-13T07:04:40;14.70;99.90
18191;DHT22;47004;51.366;12.348;2022-09-13T07:06:44;14.70;99.90
18191;DHT22;47004;51.366;12.348;2022-09-13T07:08:48;14.70;99.90
18191;DHT22;47004;51.366;12.348;2022-09-13T07:10:50;14.70;99.90
18191;DHT22;47004;51.366;12.348;2022-09-13T07:12:52;14.70;99.90
18191;DHT22;47004;51.366;12.348;2022-09-13T07:14:54;14.80;99.90
18191;DHT22;47004;51.366;12.348;2022-09-13T07:16:57;14.80;99.90
18191;DHT22;47004;51.366;12.348;2022-09-13T07:19:01;14.70;99.90
18191;DHT22;47004;51.366;12.348;2022-09-13T07:21:06;14.90;99.90
18191;DHT22;47004;51.366;12.348;2022-09-13T07:23:09;14.80;99.90
18191;DHT22;47004;51.366;12.348;2022-09-13T07:25:11;14.80;99.90
18191;DHT22;47004;51.366;12.348;2022-09-13T07:27:12;14.80;99.90
18191;DHT22;47004;51.366;12.348;2022-09-13T07:29:18;14.80;99.90
18191;DHT22;47004;51.366;12.348;2022-09-13T07:31:24;14.80;99.90
18191;DHT22;47004;51.366;12.348;2022-09-13T07:33:27;14.80;99.90
18191;DHT22;47004;51.366;12.348;2022-09-13T07:35:29;14.90;99.90
18191;DHT22;47004;51.366;12.348;2022-09-13T07:37:31;14.90;99.90
18191;DHT22;47004;51.366;12.348;2022-09-13T07:39:33;14.90;99.90
18191;DHT22;47004;51.366;12.348;2022-09-13T07:41:35;14.90;99.90
18191;DHT22;47004;51.366;12.348;2022-09-13T07:43:37;15.00;99.90
18191;DHT22;47004;51.366;12.348;2022-09-13T07:45:39;15.10;99.90
18191;DHT22;47004;51.366;12.348;2022-09-13T07:47:41;15.10;99.90
18191;DHT22;47004;51.366;12.348;2022-09-13T07:49:45;15.10;99.90
18191;DHT22;47004;51.366;12.348;2022-09-13T07:51:47;15.20;99.90
18191;DHT22;47004;51.366;12.348;2022-09-13T07:53:53;15.20;99.90
18191;DHT22;47004;51.366;12.348;2022-09-13T07:56:00;15.30;99.90
18191;DHT22;47004;51.366;12.348;2022-09-13T07:58:02;15.30;99.90
18191;DHT22;47004;51.366;12.348;2022-09-13T08:00:05;15.40;99.90
18191;DHT22;47004;51.366;12.348;2022-09-13T08:02:08;15.40;99.90
18191;DHT22;47004;51.366;12.348;2022-09-13T08:04:12;15.50;99.90
18191;DHT22;47004;51.366;12.348;2022-09-13T08:06:15;15.50;99.90
18191;DHT22;47004;51.366;12.348;2022-09-13T08:08:17;15.50;99.90
18191;DHT22;47004;51.366;12.348;2022-09-13T08:10:20;15.60;99.90
18191;DHT22;47004;51.366;12.348;2022-09-13T08:12:21;15.60;99.90
18191;DHT22;47004;51.366;12.348;2022-09-13T08:14:23;15.70;99.90
18191;DHT22;47004;51.366;12.348;2022-09-13T08:16:27;15.70;99.90
18191;DHT22;47004;51.366;12.348;2022-09-13T08:18:29;15.80;99.90
18191;DHT22;47004;51.366;12.348;2022-09-13T08:20:34;15.80;99.90
18191;DHT22;47004;51.366;12.348;2022-09-13T08:22:38;15.80;99.90
18191;DHT22;47004;51.366;12.348;2022-09-13T08:24:40;16.00;99.90
18191;DHT22;47004;51.366;12.348;2022-09-13T08:26:42;16.00;99.90
18191;DHT22;47004;51.366;12.348;2022-09-13T08:28:44;16.10;99.90
18191;DHT22;47004;51.366;12.348;2022-09-13T08:30:46;16.10;99.90
18191;DHT22;47004;51.366;12.348;2022-09-13T08:32:49;16.20;99.90
18191;DHT22;47004;51.366;12.348;2022-09-13T08:34:51;16.20;99.90
18191;DHT22;47004;51.366;12.348;2022-09-13T08:36:53;16.30;99.90
18191;DHT22;47004;51.366;12.348;2022-09-13T08:38:58;16.40;99.90
18191;DHT22;47004;51.366;12.348;2022-09-13T08:41:02;16.40;99.90
18191;DHT22;47004;51.366;12.348;2022-09-13T08:43:10;16.50;99.90
18191;DHT22;47004;51.366;12.348;2022-09-13T08:45:15;16.50;99.90
18191;DHT22;47004;51.366;12.348;2022-09-13T08:47:33;16.60;99.90
18191;DHT22;47004;51.366;12.348;2022-09-13T08:49:40;16.60;99.90
18191;DHT22;47004;51.366;12.348;2022-09-13T08:51:46;16.70;99.90
18191;DHT22;47004;51.366;12.348;2022-09-13T08:53:49;16.80;99.90
18191;DHT22;47004;51.366;12.348;2022-09-13T08:56:00;16.80;99.90
18191;DHT22;47004;51.366;12.348;2022-09-13T08:58:24;16.80;99.90
18191;DHT22;47004;51.366;12.348;2022-09-13T09:00:34;16.90;99.90
18191;DHT22;47004;51.366;12.348;2022-09-13T09:02:51;17.00;99.90
18191;DHT22;47004;51.366;12.348;2022-09-13T09:05:00;17.00;99.90
18191;DHT22;47004;51.366;12.348;2022-09-13T09:07:09;17.10;99.90
18191;DHT22;47004;51.366;12.348;2022-09-13T09:09:15;17.20;99.90
18191;DHT22;47004;51.366;12.348;2022-09-13T09:11:28;17.20;99.90
18191;DHT22;47004;51.366;12.348;2022-09-13T09:13:40;17.30;99.90
18191;DHT22;47004;51.366;12.348;2022-09-13T09:15:51;17.40;99.90
18191;DHT22;47004;51.366;12.348;2022-09-13T09:17:56;17.40;99.90
18191;DHT22;47004;51.366;12.348;2022-09-13T09:20:06;17.40;99.90
18191;DHT22;47004;51.366;12.348;2022-09-13T09:22:14;17.50;99.90
18191;DHT22;47004;51.366;12.348;2022-09-13T09:24:20;17.50;99.90
18191;DHT22;47004;51.366;12.348;2022-09-13T09:26:25;17.60;99.90
18191;DHT22;47004;51.366;12.348;2022-09-13T09:28:28;17.70;99.90
18191;DHT22;47004;51.366;12.348;2022-09-13T09:30:37;17.70;99.90
18191;DHT22;47004;51.366;12.348;2022-09-13T09:33:21;17.80;99.90
18191;DHT22;47004;51.366;12.348;2022-09-13T09:35:34;17.80;99.90
18191;DHT22;47004;51.366;12.348;2022-09-13T09:37:38;17.90;99.90
18191;DHT22;47004;51.366;12.348;2022-09-13T09:39:42;17.90;99.90
18191;DHT22;47004;51.366;12.348;2022-09-13T09:41:45;18.00;99.90
18191;DHT22;47004;51.366;12.348;2022-09-13T09:43:50;18.10;99.90
18191;DHT22;47004;51.366;12.348;2022-09-13T09:45:56;18.20;99.90
18191;DHT22;47004;51.366;12.348;2022-09-13T09:48:01;18.20;99.90
18191;DHT22;47004;51.366;12.348;2022-09-13T09:50:09;18.40;99.90
18191;DHT22;47004;51.366;12.348;2022-09-13T09:52:16;18.50;99.90
18191;DHT22;47004;51.366;12.348;2022-09-13T09:54:21;18.60;99.90
18191;DHT22;47004;51.366;12.348;2022-09-13T09:56:26;18.70;99.90
18191;DHT22;47004;51.366;12.348;2022-09-13T09:58:41;18.80;99.90
18191;DHT22;47004;51.366;12.348;2022-09-13T10:00:50;18.90;99.90
18191;DHT22;47004;51.366;12.348;2022-09-13T10:02:55;19.10;99.90
18191;DHT22;47004;51.366;12.348;2022-09-13T10:05:00;19.10;99.90
18191;DHT22;47004;51.366;12.348;2022-09-13T10:07:25;19.20;99.90
18191;DHT22;47004;51.366;12.348;2022-09-13T10:09:28;19.30;99.90
18191;DHT22;47004;51.366;12.348;2022-09-13T10:11:42;19.40;99.90
18191;DHT22;47004;51.366;12.348;2022-09-13T10:13:58;19.50;99.90
18191;DHT22;47004;51.366;12.348;2022-09-13T10:16:03;19.60;99.90
18191;DHT22;47004;51.366;12.348;2022-09-13T10:18:13;19.70;99.90
18191;DHT22;47004;51.366;12.348;2022-09-13T10:20:21;19.80;99.90
18191;DHT22;47004;51.366;12.348;2022-09-13T10:22:27;19.90;99.90
18191;DHT22;47004;51.366;12.348;2022-09-13T10:24:29;20.10;99.90
18191;DHT22;47004;51.366;12.348;2022-09-13T10:26:32;20.20;99.90
18191;DHT22;47004;51.366;12.348;2022-09-13T10:28:42;20.30;99.90
18191;DHT22;47004;51.366;12.348;2022-09-13T10:30:51;20.40;99.90
18191;DHT22;47004;51.366;12.348;2022-09-13T10:32:54;20.50;99.90
18191;DHT22;47004;51.366;12.348;2022-09-13T10:35:01;20.60;99.90
18191;DHT22;47004;51.366;12.348;2022-09-13T10:37:11;20.60;99.90
18191;DHT22;47004;51.366;12.348;2022-09-13T10:39:18;20.70;99.90
18191;DHT22;47004;51.366;12.348;2022-09-13T10:41:22;20.80;99.90
18191;DHT22;47004;51.366;12.348;2022-09-13T10:43:27;20.80;99.90
18191;DHT22;47004;51.366;12.348;2022-09-13T10:45:30;20.80;99.90
18191;DHT22;47004;51.366;12.348;2022-09-13T10:47:38;20.90;99.90
18191;DHT22;47004;51.366;12.348;2022-09-13T10:49:45;21.00;99.90
18191;DHT22;47004;51.366;12.348;2022-09-13T10:51:47;21.10;99.90
18191;DHT22;47004;51.366;12.348;2022-09-13T10:53:49;21.10;99.90
18191;DHT22;47004;51.366;12.348;2022-09-13T10:55:52;21.20;99.90
18191;DHT22;47004;51.366;12.348;2022-09-13T10:58:10;21.20;99.90
18191;DHT22;47004;51.366;12.348;2022-09-13T11:00:15;21.20;99.90
18191;DHT22;47004;51.366;12.348;2022-09-13T11:02:34;21.30;99.90
18191;DHT22;47004;51.366;12.348;2022-09-13T11:05:00;21.30;99.90
18191;DHT22;47004;51.366;12.348;2022-09-13T11:07:27;21.30;99.90
18191;DHT22;47004;51.366;12.348;2022-09-13T11:09:33;21.30;99.90
18191;DHT22;47004;51.366;12.348;2022-09-13T11:11:41;21.40;99.90
18191;DHT22;47004;51.366;12.348;2022-09-13T11:13:55;21.40;99.90
18191;DHT22;47004;51.366;12.348;2022-09-13T11:16:09;21.50;99.90
18191;DHT22;47004;51.366;12.348;2022-09-13T11:18:31;21.60;99.90
18191;DHT22;47004;51.366;12.348;2022-09-13T11:20:44;21.60;99.90
18191;DHT22;47004;51.366;12.348;2022-09-13T11:25:50;21.80;99.90
18191;DHT22;47004;51.366;12.348;2022-09-13T11:28:02;21.90;99.90
18191;DHT22;47004;51.366;12.348;2022-09-13T11:30:10;21.90;99.30
18191;DHT22;47004;51.366;12.348;2022-09-13T11:32:22;22.00;99.90
18191;DHT22;47004;51.366;12.348;2022-09-13T11:34:37;22.00;98.90
18191;DHT22;47004;51.366;12.348;2022-09-13T11:37:03;22.10;99.40
18191;DHT22;47004;51.366;12.348;2022-09-13T11:39:16;22.20;99.90
18191;DHT22;47004;51.366;12.348;2022-09-13T11:41:28;22.30;97.50
18191;DHT22;47004;51.366;12.348;2022-09-13T11:43:43;22.40;96.40
18191;DHT22;47004;51.366;12.348;2022-09-13T11:45:53;22.50;96.00
18191;DHT22;47004;51.366;12.348;2022-09-13T11:48:31;22.60;93.40
18191;DHT22;47004;51.366;12.348;2022-09-13T11:50:44;22.70;93.20
18191;DHT22;47004;51.366;12.348;2022-09-13T11:52:58;22.80;93.00
18191;DHT22;47004;51.366;12.348;2022-09-13T11:55:13;22.90;91.00
18191;DHT22;47004;51.366;12.348;2022-09-13T11:57:19;22.90;91.10
18191;DHT22;47004;51.366;12.348;2022-09-13T11:59:32;22.90;91.50
18191;DHT22;47004;51.366;12.348;2022-09-13T12:01:38;23.00;90.30
18191;DHT22;47004;51.366;12.348;2022-09-13T12:03:52;23.10;90.60
18191;DHT22;47004;51.366;12.348;2022-09-13T12:06:02;23.20;90.20
18191;DHT22;47004;51.366;12.348;2022-09-13T12:08:11;23.40;88.30
18191;DHT22;47004;51.366;12.348;2022-09-13T12:10:17;23.60;88.60
18191;DHT22;47004;51.366;12.348;2022-09-13T12:12:21;23.80;85.10
18191;DHT22;47004;51.366;12.348;2022-09-13T12:14:29;23.90;84.40
18191;DHT22;47004;51.366;12.348;2022-09-13T12:16:36;24.00;82.60
18191;DHT22;47004;51.366;12.348;2022-09-13T12:18:41;24.10;83.40
18191;DHT22;47004;51.366;12.348;2022-09-13T12:20:47;24.30;83.50
18191;DHT22;47004;51.366;12.348;2022-09-13T12:22:53;24.30;79.60
18191;DHT22;47004;51.366;12.348;2022-09-13T12:24:57;24.30;78.80
18191;DHT22;47004;51.366;12.348;2022-09-13T12:27:06;24.30;79.30
18191;DHT22;47004;51.366;12.348;2022-09-13T12:29:14;24.30;78.50
18191;DHT22;47004;51.366;12.348;2022-09-13T12:31:20;24.30;79.00
18191;DHT22;47004;51.366;12.348;2022-09-13T12:33:23;24.30;77.00
18191;DHT22;47004;51.366;12.348;2022-09-13T12:35:28;24.30;76.30
18191;DHT22;47004;51.366;12.348;2022-09-13T12:37:56;24.30;76.80
18191;DHT22;47004;51.366;12.348;2022-09-13T12:40:14;24.20;73.00
18191;DHT22;47004;51.366;12.348;2022-09-13T12:42:45;24.20;70.30
18191;DHT22;47004;51.366;12.348;2022-09-13T12:44:59;24.10;66.90
18191;DHT22;47004;51.366;12.348;2022-09-13T12:47:36;24.10;67.50
18191;DHT22;47004;51.366;12.348;2022-09-13T12:49:54;24.00;64.20
18191;DHT22;47004;51.366;12.348;2022-09-13T12:52:15;23.90;67.90
18191;DHT22;47004;51.366;12.348;2022-09-13T12:54:44;23.80;69.50
18191;DHT22;47004;51.366;12.348;2022-09-13T12:56:56;23.70;64.60
18191;DHT22;47004;51.366;12.348;2022-09-13T12:59:24;23.70;66.70
18191;DHT22;47004;51.366;12.348;2022-09-13T13:01:30;23.70;68.30
18191;DHT22;47004;51.366;12.348;2022-09-13T13:03:35;23.70;66.90
18191;DHT22;47004;51.366;12.348;2022-09-13T13:05:40;23.60;68.70
18191;DHT22;47004;51.366;12.348;2022-09-13T13:07:50;23.60;69.20
18191;DHT22;47004;51.366;12.348;2022-09-13T13:09:55;23.60;67.20
18191;DHT22;47004;51.366;12.348;2022-09-13T13:11:57;23.60;67.30
18191;DHT22;47004;51.366;12.348;2022-09-13T13:14:02;23.60;68.00